URKA 252130Z 16003MPS CAVOK 10/09 Q1021 R22/010070 TEMPO 1000 BR RMK QFE761/1014
QNH:(hPa/inHg/mmHg)1021 / 30.15 / 766
QFE:(hPa/inHg/mmHg)1014 / 29.96 / 761
Temperature10
Dew Point9
Visibility1000
WeatherCAVOK;Mist
Cloud Cover
Transition Altitude4000 ft.
Transition LevelFL50
SQUAWK